Aeroporto :
LOGIN :

Iscrizione | Disclaimer

   EN    FR    IT 

 










Sommario :    VFR   VFR Marginale   IFR   IFR Intensivo   IFR Molto Intensivo
Visibilità : 
Base nubi : 
>= 8 km
>= 3000ft
5 / 8 km
1000 / 3000 ft
1500m / 5 km
500 / 1000 ft
800 / 1500m
200 / 500 ft
< 800m
< 200 ft
Simboli :   Temporali  Nebbia  Neve Forte  Precipitazioni Forti  Vento > 20 kt
SIGMETs :   Varie  Temporali  Ghiacco  Turbolenza  Onda orograficha  Ceneri Vulcaniche






- Altitudine del aeroporto : 778 ft
- Codice IATA : BRQ


LKTB - Brno-Turany

ULTIMO METAR :
  • 250800Z VRB01KT 1800 -DZ BR OVC002 10/10 Q1015 NOSIG

METARs OBSOLETI :
  • 250730Z 07003KT 040V100 1700 R27/1300N -DZ BR OVC002 10/10 Q1015 NOSIG
  • 250700Z 07004KT 0900 R27/1200U -DZ FG OVC002 10/10 Q1015 NOSIG
  • 250630Z 10004KT 0800 R27/1000D -DZ FG OVC001 10/10 Q1015 NOSIG
  • 250613Z 11003KT 0800 R27/1000D -DZ FG OVC001 10/10 Q1015 RMK REG QNH 1010
  • 250600Z 08002KT 0750 R27/1300D -DZ FG OVC002 10/10 Q1015 NOSIG
  • 250530Z 08004KT 0900 R27/1700D -DZ FG OVC002 10/10 Q1015 TEMPO 0500 FG

TAF TAF LKTB
Valido dal 25 a 06 ore il 26 a 12 ore UTC


250500Z 2506/2612 VRB02KT 2500 BR OVC003
TEMPO 2506/2508 1200 BR OVC002
PROB30
TEMPO 2506/2508 0650 FG OVC001
BECMG 2508/2510 15004KT 6000 BKN010
TEMPO 2510/2517 9999 SCT016
BECMG 2518/2521 2500 BR BKN005
BECMG 2521/2600 14009KT 0900 FG OVC003
TEMPO 2600/2608 0500 FG VV001
BECMG 2608/2611 7000 BKN013



MetMap, La meteo Aeronautica in un colpo d'occhio ! - Copyright ORBIFLY Dicembre 2007 - Disclaimer

ORBIFLY MET'MAP TEAM :

Programmazione e sviluppo : Alexandra Zaïnal
Concezione : Baudouin d'Aumeries
Aiuto per la programmazione : Marc-Olivier Méhu
Supporto tecnico e logistico : Manuel Goepfert
Aiuto per la traduzione : Arnaldo La Scala

Contatto : metmap@orbifly.com




FONTI E CREDITI :

   NOAA